Terminal Aerodrome Forecast
Issued by NWS

Home | Current Version | Previous Version | Text Only | Print | Product List | Glossary On
Versions: 1 2 3 4 5 6 7 8 9 10 11 12 13 14 15 16 17 18 19
000
FTUS43 KLSX 020400 AAB
TAFSUS
TAF AMD
KSUS 020438Z 0205/0224 00000KT 2SM BR SKC
      TEMPO 0210/0212 1SM BR
     FM021300 VRB03KT P6SM SKC
     FM021700 05006KT P6SM SCT050=

USA.gov is the U.S. government's official web portal to all federal, state and local government web resources and services.